sensor_id;sensor_type;location;lat;lon;timestamp;pressure;altitude;pressure_sealevel;temperature;humidity
23574;BME280;11965;53.640;10.050;2023-08-06T00:00:41;100636.91;;;15.79;100.00
23574;BME280;11965;53.640;10.050;2023-08-06T00:03:09;100618.94;;;16.05;100.00
23574;BME280;11965;53.640;10.050;2023-08-06T00:05:37;100623.97;;;16.15;100.00
23574;BME280;11965;53.640;10.050;2023-08-06T00:08:07;100623.53;;;16.00;100.00
23574;BME280;11965;53.640;10.050;2023-08-06T00:10:34;100629.63;;;15.78;100.00
23574;BME280;11965;53.640;10.050;2023-08-06T00:13:01;100625.50;;;15.62;100.00
23574;BME280;11965;53.640;10.050;2023-08-06T00:15:28;100621.91;;;15.55;100.00
23574;BME280;11965;53.640;10.050;2023-08-06T00:17:55;100618.84;;;15.45;100.00
23574;BME280;11965;53.640;10.050;2023-08-06T00:20:23;100619.59;;;15.34;100.00
23574;BME280;11965;53.640;10.050;2023-08-06T00:22:50;100611.50;;;15.25;100.00
23574;BME280;11965;53.640;10.050;2023-08-06T00:25:17;100615.47;;;15.18;100.00
23574;BME280;11965;53.640;10.050;2023-08-06T00:27:43;100617.03;;;15.14;100.00
23574;BME280;11965;53.640;10.050;2023-08-06T00:30:11;100617.31;;;15.06;100.00
23574;BME280;11965;53.640;10.050;2023-08-06T00:32:37;100617.16;;;15.00;100.00
23574;BME280;11965;53.640;10.050;2023-08-06T00:35:05;100607.53;;;14.96;100.00
23574;BME280;11965;53.640;10.050;2023-08-06T00:37:33;100603.28;;;14.94;100.00
23574;BME280;11965;53.640;10.050;2023-08-06T00:40:00;100596.22;;;14.91;100.00
23574;BME280;11965;53.640;10.050;2023-08-06T00:42:27;100598.41;;;14.83;100.00
23574;BME280;11965;53.640;10.050;2023-08-06T00:44:54;100590.50;;;14.79;100.00
23574;BME280;11965;53.640;10.050;2023-08-06T00:47:21;100592.44;;;14.79;100.00
23574;BME280;11965;53.640;10.050;2023-08-06T00:49:48;100595.25;;;14.79;100.00
23574;BME280;11965;53.640;10.050;2023-08-06T00:52:15;100590.03;;;14.83;100.00
23574;BME280;11965;53.640;10.050;2023-08-06T00:54:43;100584.03;;;14.86;100.00
23574;BME280;11965;53.640;10.050;2023-08-06T00:57:11;100580.66;;;14.77;100.00
23574;BME280;11965;53.640;10.050;2023-08-06T00:59:38;100575.50;;;14.80;100.00
23574;BME280;11965;53.640;10.050;2023-08-06T01:02:05;100570.50;;;14.83;100.00
23574;BME280;11965;53.640;10.050;2023-08-06T01:04:32;100545.41;;;14.83;100.00
23574;BME280;11965;53.640;10.050;2023-08-06T01:07:12;100541.38;;;14.78;100.00
23574;BME280;11965;53.640;10.050;2023-08-06T01:09:51;100541.56;;;14.84;100.00
23574;BME280;11965;53.640;10.050;2023-08-06T01:12:32;100543.50;;;14.83;100.00
23574;BME280;11965;53.640;10.050;2023-08-06T01:15:09;100546.28;;;14.83;100.00
23574;BME280;11965;53.640;10.050;2023-08-06T01:17:40;100543.09;;;14.79;100.00
23574;BME280;11965;53.640;10.050;2023-08-06T01:20:08;100542.44;;;14.77;100.00
23574;BME280;11965;53.640;10.050;2023-08-06T01:22:36;100543.31;;;14.78;100.00
23574;BME280;11965;53.640;10.050;2023-08-06T01:25:04;100545.50;;;14.76;100.00
23574;BME280;11965;53.640;10.050;2023-08-06T01:27:46;100539.06;;;14.75;100.00
23574;BME280;11965;53.640;10.050;2023-08-06T01:30:17;100525.78;;;14.71;100.00
23574;BME280;11965;53.640;10.050;2023-08-06T01:32:50;100522.38;;;14.69;100.00
23574;BME280;11965;53.640;10.050;2023-08-06T01:35:22;100525.56;;;14.72;100.00
23574;BME280;11965;53.640;10.050;2023-08-06T01:37:51;100519.13;;;14.72;100.00
23574;BME280;11965;53.640;10.050;2023-08-06T01:40:18;100527.50;;;14.72;100.00
23574;BME280;11965;53.640;10.050;2023-08-06T01:42:45;100524.94;;;14.70;100.00
23574;BME280;11965;53.640;10.050;2023-08-06T01:45:14;100527.19;;;14.62;100.00
23574;BME280;11965;53.640;10.050;2023-08-06T01:47:41;100517.63;;;14.69;100.00
23574;BME280;11965;53.640;10.050;2023-08-06T01:50:08;100525.31;;;14.74;100.00
23574;BME280;11965;53.640;10.050;2023-08-06T01:52:35;100518.81;;;14.80;100.00
23574;BME280;11965;53.640;10.050;2023-08-06T01:55:04;100519.28;;;14.77;100.00
23574;BME280;11965;53.640;10.050;2023-08-06T01:57:31;100506.66;;;14.74;100.00
23574;BME280;11965;53.640;10.050;2023-08-06T01:59:57;100494.47;;;14.69;100.00
23574;BME280;11965;53.640;10.050;2023-08-06T02:02:24;100495.72;;;14.73;100.00
23574;BME280;11965;53.640;10.050;2023-08-06T02:04:51;100502.00;;;14.68;100.00
23574;BME280;11965;53.640;10.050;2023-08-06T02:07:18;100496.03;;;14.65;100.00
23574;BME280;11965;53.640;10.050;2023-08-06T02:09:45;100488.56;;;14.58;100.00
23574;BME280;11965;53.640;10.050;2023-08-06T02:12:13;100495.63;;;14.61;100.00
23574;BME280;11965;53.640;10.050;2023-08-06T02:14:40;100489.88;;;14.56;100.00
23574;BME280;11965;53.640;10.050;2023-08-06T02:17:07;100487.78;;;14.51;100.00
23574;BME280;11965;53.640;10.050;2023-08-06T02:19:33;100483.91;;;14.52;100.00
23574;BME280;11965;53.640;10.050;2023-08-06T02:22:00;100490.56;;;14.51;100.00
23574;BME280;11965;53.640;10.050;2023-08-06T02:24:27;100481.78;;;14.48;100.00
23574;BME280;11965;53.640;10.050;2023-08-06T02:26:54;100482.84;;;14.53;100.00
23574;BME280;11965;53.640;10.050;2023-08-06T02:29:23;100480.94;;;14.47;100.00
23574;BME280;11965;53.640;10.050;2023-08-06T02:31:49;100473.41;;;14.48;100.00
23574;BME280;11965;53.640;10.050;2023-08-06T02:34:16;100468.03;;;14.53;100.00
23574;BME280;11965;53.640;10.050;2023-08-06T02:36:44;100478.56;;;14.51;100.00
23574;BME280;11965;53.640;10.050;2023-08-06T02:39:11;100475.97;;;14.49;100.00
23574;BME280;11965;53.640;10.050;2023-08-06T02:41:38;100472.56;;;14.47;100.00
23574;BME280;11965;53.640;10.050;2023-08-06T02:44:05;100473.72;;;14.40;100.00
23574;BME280;11965;53.640;10.050;2023-08-06T02:46:33;100464.75;;;14.38;100.00
23574;BME280;11965;53.640;10.050;2023-08-06T02:49:00;100461.72;;;14.39;100.00
23574;BME280;11965;53.640;10.050;2023-08-06T02:51:26;100458.00;;;14.45;100.00
23574;BME280;11965;53.640;10.050;2023-08-06T02:53:53;100458.25;;;14.44;100.00
23574;BME280;11965;53.640;10.050;2023-08-06T02:56:21;100458.91;;;14.39;100.00
23574;BME280;11965;53.640;10.050;2023-08-06T02:59:00;100454.44;;;14.38;100.00
23574;BME280;11965;53.640;10.050;2023-08-06T03:01:44;100447.22;;;14.30;100.00
23574;BME280;11965;53.640;10.050;2023-08-06T03:04:18;100447.44;;;14.29;100.00
23574;BME280;11965;53.640;10.050;2023-08-06T03:06:49;100446.84;;;14.27;100.00
23574;BME280;11965;53.640;10.050;2023-08-06T03:09:16;100438.31;;;14.22;100.00
23574;BME280;11965;53.640;10.050;2023-08-06T03:11:43;100445.56;;;14.23;100.00
23574;BME280;11965;53.640;10.050;2023-08-06T03:14:13;100449.00;;;14.25;100.00
23574;BME280;11965;53.640;10.050;2023-08-06T03:16:41;100447.25;;;14.24;100.00
23574;BME280;11965;53.640;10.050;2023-08-06T03:19:09;100446.03;;;14.20;100.00
23574;BME280;11965;53.640;10.050;2023-08-06T03:21:36;100442.63;;;14.18;100.00
23574;BME280;11965;53.640;10.050;2023-08-06T03:24:04;100446.50;;;14.17;100.00
23574;BME280;11965;53.640;10.050;2023-08-06T03:26:32;100446.66;;;14.22;100.00
23574;BME280;11965;53.640;10.050;2023-08-06T03:29:01;100448.13;;;14.24;100.00
23574;BME280;11965;53.640;10.050;2023-08-06T03:31:30;100438.06;;;14.23;100.00
23574;BME280;11965;53.640;10.050;2023-08-06T03:34:00;100439.38;;;14.21;100.00
23574;BME280;11965;53.640;10.050;2023-08-06T03:36:31;100436.41;;;14.15;100.00
23574;BME280;11965;53.640;10.050;2023-08-06T03:38:57;100437.50;;;14.14;100.00
23574;BME280;11965;53.640;10.050;2023-08-06T03:41:25;100425.25;;;14.15;100.00
23574;BME280;11965;53.640;10.050;2023-08-06T03:43:52;100425.50;;;14.14;100.00
23574;BME280;11965;53.640;10.050;2023-08-06T03:46:24;100423.78;;;14.13;100.00
23574;BME280;11965;53.640;10.050;2023-08-06T03:48:51;100416.50;;;14.12;100.00
23574;BME280;11965;53.640;10.050;2023-08-06T03:51:18;100421.44;;;14.10;100.00
23574;BME280;11965;53.640;10.050;2023-08-06T03:53:48;100415.72;;;14.05;100.00
23574;BME280;11965;53.640;10.050;2023-08-06T03:56:15;100413.16;;;14.03;100.00
23574;BME280;11965;53.640;10.050;2023-08-06T03:58:42;100412.31;;;14.03;100.00
23574;BME280;11965;53.640;10.050;2023-08-06T04:01:09;100415.03;;;14.09;100.00
23574;BME280;11965;53.640;10.050;2023-08-06T04:03:41;100423.84;;;14.06;100.00
23574;BME280;11965;53.640;10.050;2023-08-06T04:06:08;100417.91;;;14.03;100.00
23574;BME280;11965;53.640;10.050;2023-08-06T04:08:36;100414.47;;;14.01;100.00
23574;BME280;11965;53.640;10.050;2023-08-06T04:11:04;100424.53;;;14.02;100.00
23574;BME280;11965;53.640;10.050;2023-08-06T04:13:31;100413.56;;;14.07;100.00
23574;BME280;11965;53.640;10.050;2023-08-06T04:16:00;100414.66;;;14.06;100.00
23574;BME280;11965;53.640;10.050;2023-08-06T04:18:27;100413.63;;;14.00;100.00
23574;BME280;11965;53.640;10.050;2023-08-06T04:20:55;100415.97;;;14.03;100.00
23574;BME280;11965;53.640;10.050;2023-08-06T04:23:23;100415.72;;;14.05;100.00
23574;BME280;11965;53.640;10.050;2023-08-06T04:25:51;100419.97;;;14.07;100.00
23574;BME280;11965;53.640;10.050;2023-08-06T04:28:19;100426.44;;;14.08;100.00
23574;BME280;11965;53.640;10.050;2023-08-06T04:30:46;100418.28;;;14.06;100.00
23574;BME280;11965;53.640;10.050;2023-08-06T04:33:13;100417.47;;;13.99;100.00
23574;BME280;11965;53.640;10.050;2023-08-06T04:35:40;100423.00;;;14.06;100.00
23574;BME280;11965;53.640;10.050;2023-08-06T04:38:06;100431.03;;;13.96;100.00
23574;BME280;11965;53.640;10.050;2023-08-06T04:40:33;100423.94;;;14.00;100.00
23574;BME280;11965;53.640;10.050;2023-08-06T04:43:00;100423.63;;;14.08;100.00
23574;BME280;11965;53.640;10.050;2023-08-06T04:45:32;100440.00;;;13.98;100.00
23574;BME280;11965;53.640;10.050;2023-08-06T04:47:59;100430.56;;;13.99;100.00
23574;BME280;11965;53.640;10.050;2023-08-06T04:50:25;100428.63;;;13.99;100.00
23574;BME280;11965;53.640;10.050;2023-08-06T04:52:52;100431.81;;;14.03;100.00
23574;BME280;11965;53.640;10.050;2023-08-06T04:55:19;100416.41;;;14.00;100.00
23574;BME280;11965;53.640;10.050;2023-08-06T04:57:46;100419.59;;;14.04;100.00
23574;BME280;11965;53.640;10.050;2023-08-06T05:00:13;100418.56;;;13.98;100.00
23574;BME280;11965;53.640;10.050;2023-08-06T05:02:41;100419.66;;;13.97;100.00
23574;BME280;11965;53.640;10.050;2023-08-06T05:05:08;100423.69;;;14.01;100.00
23574;BME280;11965;53.640;10.050;2023-08-06T05:07:35;100416.59;;;14.05;100.00
23574;BME280;11965;53.640;10.050;2023-08-06T05:10:02;100423.56;;;14.14;100.00
23574;BME280;11965;53.640;10.050;2023-08-06T05:12:30;100420.78;;;14.14;100.00
23574;BME280;11965;53.640;10.050;2023-08-06T05:14:56;100417.94;;;14.21;100.00
23574;BME280;11965;53.640;10.050;2023-08-06T05:17:23;100423.06;;;14.24;100.00
23574;BME280;11965;53.640;10.050;2023-08-06T05:19:51;100422.88;;;14.19;100.00
23574;BME280;11965;53.640;10.050;2023-08-06T05:22:18;100428.00;;;14.22;100.00
23574;BME280;11965;53.640;10.050;2023-08-06T05:24:45;100411.94;;;14.18;100.00
23574;BME280;11965;53.640;10.050;2023-08-06T05:27:12;100417.78;;;14.16;100.00
23574;BME280;11965;53.640;10.050;2023-08-06T05:29:38;100410.44;;;14.22;100.00
23574;BME280;11965;53.640;10.050;2023-08-06T05:32:06;100420.03;;;14.26;100.00
23574;BME280;11965;53.640;10.050;2023-08-06T05:34:33;100415.63;;;14.36;100.00
23574;BME280;11965;53.640;10.050;2023-08-06T05:37:01;100414.94;;;14.41;100.00
23574;BME280;11965;53.640;10.050;2023-08-06T05:39:28;100416.78;;;14.47;100.00
23574;BME280;11965;53.640;10.050;2023-08-06T05:41:55;100411.19;;;14.54;100.00
23574;BME280;11965;53.640;10.050;2023-08-06T05:44:22;100407.69;;;14.58;100.00
23574;BME280;11965;53.640;10.050;2023-08-06T05:46:49;100408.09;;;14.62;100.00
23574;BME280;11965;53.640;10.050;2023-08-06T05:49:17;100408.00;;;14.69;100.00
23574;BME280;11965;53.640;10.050;2023-08-06T05:51:43;100405.00;;;14.70;100.00
23574;BME280;11965;53.640;10.050;2023-08-06T05:54:12;100407.53;;;14.72;100.00
23574;BME280;11965;53.640;10.050;2023-08-06T05:56:40;100399.78;;;14.55;100.00
23574;BME280;11965;53.640;10.050;2023-08-06T05:59:06;100405.38;;;14.55;100.00
23574;BME280;11965;53.640;10.050;2023-08-06T06:01:33;100407.38;;;14.67;100.00
23574;BME280;11965;53.640;10.050;2023-08-06T06:04:00;100396.53;;;14.77;100.00
23574;BME280;11965;53.640;10.050;2023-08-06T06:06:27;100392.19;;;14.81;100.00
23574;BME280;11965;53.640;10.050;2023-08-06T06:08:54;100402.88;;;14.84;100.00
23574;BME280;11965;53.640;10.050;2023-08-06T06:11:22;100397.22;;;14.91;100.00
23574;BME280;11965;53.640;10.050;2023-08-06T06:13:50;100389.47;;;14.93;100.00
23574;BME280;11965;53.640;10.050;2023-08-06T06:16:17;100386.22;;;14.77;100.00
23574;BME280;11965;53.640;10.050;2023-08-06T06:18:45;100394.75;;;14.83;100.00
23574;BME280;11965;53.640;10.050;2023-08-06T06:21:12;100396.22;;;14.85;100.00
23574;BME280;11965;53.640;10.050;2023-08-06T06:23:39;100394.81;;;14.94;100.00
23574;BME280;11965;53.640;10.050;2023-08-06T06:26:06;100395.88;;;15.12;100.00
23574;BME280;11965;53.640;10.050;2023-08-06T06:28:34;100404.97;;;15.07;100.00
23574;BME280;11965;53.640;10.050;2023-08-06T06:31:01;100389.53;;;15.05;100.00
23574;BME280;11965;53.640;10.050;2023-08-06T06:33:28;100392.25;;;15.23;100.00
23574;BME280;11965;53.640;10.050;2023-08-06T06:35:55;100403.75;;;15.15;100.00
23574;BME280;11965;53.640;10.050;2023-08-06T06:38:23;100399.19;;;15.20;100.00
23574;BME280;11965;53.640;10.050;2023-08-06T06:40:53;100387.72;;;15.40;100.00
23574;BME280;11965;53.640;10.050;2023-08-06T06:43:20;100392.00;;;15.55;100.00
23574;BME280;11965;53.640;10.050;2023-08-06T06:45:52;100387.91;;;15.57;100.00
23574;BME280;11965;53.640;10.050;2023-08-06T06:48:19;100391.94;;;15.61;100.00
23574;BME280;11965;53.640;10.050;2023-08-06T06:50:47;100397.22;;;15.39;100.00
23574;BME280;11965;53.640;10.050;2023-08-06T06:53:14;100393.81;;;15.49;100.00
23574;BME280;11965;53.640;10.050;2023-08-06T06:55:41;100400.84;;;15.40;100.00
23574;BME280;11965;53.640;10.050;2023-08-06T06:58:07;100397.56;;;15.43;100.00
23574;BME280;11965;53.640;10.050;2023-08-06T07:00:35;100395.81;;;15.30;100.00
23574;BME280;11965;53.640;10.050;2023-08-06T07:03:04;100403.44;;;15.23;100.00
23574;BME280;11965;53.640;10.050;2023-08-06T07:05:30;100394.72;;;15.31;100.00
23574;BME280;11965;53.640;10.050;2023-08-06T07:07:57;100389.63;;;15.28;100.00
23574;BME280;11965;53.640;10.050;2023-08-06T07:10:25;100396.59;;;15.37;100.00
23574;BME280;11965;53.640;10.050;2023-08-06T07:12:51;100400.16;;;15.56;100.00
23574;BME280;11965;53.640;10.050;2023-08-06T07:15:18;100402.19;;;15.79;100.00
23574;BME280;11965;53.640;10.050;2023-08-06T07:17:45;100398.69;;;15.84;100.00
23574;BME280;11965;53.640;10.050;2023-08-06T07:20:13;100403.16;;;15.85;100.00
23574;BME280;11965;53.640;10.050;2023-08-06T07:22:40;100398.66;;;15.72;100.00
23574;BME280;11965;53.640;10.050;2023-08-06T07:25:07;100406.44;;;15.82;100.00
23574;BME280;11965;53.640;10.050;2023-08-06T07:27:34;100395.53;;;15.80;100.00
23574;BME280;11965;53.640;10.050;2023-08-06T07:30:01;100398.09;;;16.05;100.00
23574;BME280;11965;53.640;10.050;2023-08-06T07:32:30;100404.53;;;16.29;100.00
23574;BME280;11965;53.640;10.050;2023-08-06T07:34:57;100390.09;;;16.44;100.00
23574;BME280;11965;53.640;10.050;2023-08-06T07:37:27;100394.81;;;16.32;100.00
23574;BME280;11965;53.640;10.050;2023-08-06T07:39:54;100399.06;;;16.34;100.00
23574;BME280;11965;53.640;10.050;2023-08-06T07:42:21;100393.72;;;16.09;100.00
23574;BME280;11965;53.640;10.050;2023-08-06T07:44:51;100395.41;;;15.87;100.00
23574;BME280;11965;53.640;10.050;2023-08-06T07:47:18;100401.69;;;15.71;100.00
23574;BME280;11965;53.640;10.050;2023-08-06T07:49:45;100402.31;;;15.84;100.00
23574;BME280;11965;53.640;10.050;2023-08-06T07:52:12;100394.19;;;15.95;100.00
23574;BME280;11965;53.640;10.050;2023-08-06T07:54:40;100391.31;;;16.01;100.00
23574;BME280;11965;53.640;10.050;2023-08-06T07:57:07;100403.94;;;16.39;100.00
23574;BME280;11965;53.640;10.050;2023-08-06T07:59:34;100399.19;;;16.28;100.00
23574;BME280;11965;53.640;10.050;2023-08-06T08:02:00;100398.81;;;16.36;100.00
23574;BME280;11965;53.640;10.050;2023-08-06T08:04:27;100399.94;;;16.23;100.00
23574;BME280;11965;53.640;10.050;2023-08-06T08:06:54;100396.88;;;16.13;100.00
23574;BME280;11965;53.640;10.050;2023-08-06T08:09:21;100400.66;;;16.07;100.00
23574;BME280;11965;53.640;10.050;2023-08-06T08:11:49;100394.41;;;15.93;100.00
23574;BME280;11965;53.640;10.050;2023-08-06T08:14:17;100393.34;;;16.06;100.00
23574;BME280;11965;53.640;10.050;2023-08-06T08:16:45;100396.97;;;16.06;100.00
23574;BME280;11965;53.640;10.050;2023-08-06T08:19:11;100398.84;;;16.12;100.00
23574;BME280;11965;53.640;10.050;2023-08-06T08:21:38;100395.91;;;16.19;100.00
23574;BME280;11965;53.640;10.050;2023-08-06T08:24:05;100391.16;;;16.20;100.00
23574;BME280;11965;53.640;10.050;2023-08-06T08:26:32;100392.75;;;16.39;100.00
23574;BME280;11965;53.640;10.050;2023-08-06T08:29:00;100395.88;;;16.54;100.00
23574;BME280;11965;53.640;10.050;2023-08-06T08:31:27;100396.25;;;16.58;100.00
23574;BME280;11965;53.640;10.050;2023-08-06T08:33:55;100386.91;;;16.52;100.00
23574;BME280;11965;53.640;10.050;2023-08-06T08:36:22;100387.88;;;16.46;100.00
23574;BME280;11965;53.640;10.050;2023-08-06T08:38:48;100387.25;;;16.80;100.00
23574;BME280;11965;53.640;10.050;2023-08-06T08:41:20;100391.75;;;16.81;100.00
23574;BME280;11965;53.640;10.050;2023-08-06T08:43:50;100385.91;;;16.82;100.00
23574;BME280;11965;53.640;10.050;2023-08-06T08:46:19;100383.22;;;16.64;100.00
23574;BME280;11965;53.640;10.050;2023-08-06T08:48:46;100391.16;;;16.43;100.00
23574;BME280;11965;53.640;10.050;2023-08-06T08:51:15;100391.78;;;16.45;100.00
23574;BME280;11965;53.640;10.050;2023-08-06T08:53:44;100387.25;;;16.56;100.00
23574;BME280;11965;53.640;10.050;2023-08-06T08:56:12;100382.25;;;16.70;100.00
23574;BME280;11965;53.640;10.050;2023-08-06T08:58:39;100383.00;;;16.77;100.00
23574;BME280;11965;53.640;10.050;2023-08-06T09:01:08;100380.66;;;16.62;100.00
23574;BME280;11965;53.640;10.050;2023-08-06T09:03:37;100384.56;;;16.61;100.00
23574;BME280;11965;53.640;10.050;2023-08-06T09:06:06;100378.25;;;16.77;100.00
23574;BME280;11965;53.640;10.050;2023-08-06T09:08:37;100378.13;;;16.61;100.00
23574;BME280;11965;53.640;10.050;2023-08-06T09:11:09;100376.53;;;16.65;100.00
23574;BME280;11965;53.640;10.050;2023-08-06T09:13:37;100373.75;;;16.41;100.00
23574;BME280;11965;53.640;10.050;2023-08-06T09:16:04;100373.66;;;16.24;100.00
23574;BME280;11965;53.640;10.050;2023-08-06T09:18:31;100379.13;;;16.07;100.00
23574;BME280;11965;53.640;10.050;2023-08-06T09:20:59;100376.09;;;16.21;100.00
23574;BME280;11965;53.640;10.050;2023-08-06T09:23:30;100374.50;;;16.25;100.00
23574;BME280;11965;53.640;10.050;2023-08-06T09:25:57;100369.88;;;16.30;100.00
23574;BME280;11965;53.640;10.050;2023-08-06T09:28:24;100387.03;;;16.34;100.00
23574;BME280;11965;53.640;10.050;2023-08-06T09:30:52;100380.34;;;16.23;100.00
23574;BME280;11965;53.640;10.050;2023-08-06T09:33:22;100382.53;;;16.21;100.00
23574;BME280;11965;53.640;10.050;2023-08-06T09:35:49;100382.06;;;16.12;100.00
23574;BME280;11965;53.640;10.050;2023-08-06T09:38:17;100374.25;;;16.15;100.00
23574;BME280;11965;53.640;10.050;2023-08-06T09:40:44;100390.44;;;16.24;100.00
23574;BME280;11965;53.640;10.050;2023-08-06T09:43:11;100386.53;;;16.25;100.00
23574;BME280;11965;53.640;10.050;2023-08-06T09:45:38;100390.53;;;16.41;100.00
23574;BME280;11965;53.640;10.050;2023-08-06T09:48:06;100392.50;;;16.41;100.00
23574;BME280;11965;53.640;10.050;2023-08-06T09:50:35;100390.78;;;16.51;100.00
23574;BME280;11965;53.640;10.050;2023-08-06T09:53:04;100393.19;;;16.60;100.00
23574;BME280;11965;53.640;10.050;2023-08-06T09:55:34;100393.47;;;16.58;100.00
23574;BME280;11965;53.640;10.050;2023-08-06T09:58:01;100388.59;;;16.77;100.00
23574;BME280;11965;53.640;10.050;2023-08-06T10:00:28;100383.44;;;16.86;100.00
23574;BME280;11965;53.640;10.050;2023-08-06T10:03:00;100384.69;;;16.66;100.00
23574;BME280;11965;53.640;10.050;2023-08-06T10:05:27;100382.88;;;16.48;100.00
23574;BME280;11965;53.640;10.050;2023-08-06T10:07:55;100386.41;;;16.44;100.00
23574;BME280;11965;53.640;10.050;2023-08-06T10:10:25;100383.84;;;16.66;100.00
23574;BME280;11965;53.640;10.050;2023-08-06T10:12:57;100381.41;;;16.69;100.00
23574;BME280;11965;53.640;10.050;2023-08-06T10:15:31;100376.97;;;16.73;100.00
23574;BME280;11965;53.640;10.050;2023-08-06T10:18:00;100381.03;;;16.66;100.00
23574;BME280;11965;53.640;10.050;2023-08-06T10:20:33;100376.88;;;16.68;100.00
23574;BME280;11965;53.640;10.050;2023-08-06T10:23:01;100374.22;;;16.62;100.00
23574;BME280;11965;53.640;10.050;2023-08-06T10:25:31;100372.53;;;16.49;100.00
23574;BME280;11965;53.640;10.050;2023-08-06T10:28:01;100370.84;;;16.36;100.00
23574;BME280;11965;53.640;10.050;2023-08-06T10:30:34;100372.56;;;16.37;100.00
23574;BME280;11965;53.640;10.050;2023-08-06T10:33:07;100363.09;;;16.26;100.00
23574;BME280;11965;53.640;10.050;2023-08-06T10:35:36;100372.06;;;16.17;100.00
23574;BME280;11965;53.640;10.050;2023-08-06T10:38:05;100358.97;;;15.94;100.00
23574;BME280;11965;53.640;10.050;2023-08-06T10:40:33;100359.94;;;15.99;100.00
23574;BME280;11965;53.640;10.050;2023-08-06T10:43:02;100359.69;;;16.01;100.00
23574;BME280;11965;53.640;10.050;2023-08-06T10:45:29;100358.22;;;16.10;100.00
23574;BME280;11965;53.640;10.050;2023-08-06T10:47:57;100357.97;;;16.11;100.00
23574;BME280;11965;53.640;10.050;2023-08-06T10:50:24;100361.53;;;16.07;100.00
23574;BME280;11965;53.640;10.050;2023-08-06T10:52:52;100356.16;;;16.17;100.00
23574;BME280;11965;53.640;10.050;2023-08-06T10:55:24;100355.31;;;16.28;100.00
23574;BME280;11965;53.640;10.050;2023-08-06T10:57:51;100352.25;;;16.30;100.00
23574;BME280;11965;53.640;10.050;2023-08-06T11:00:23;100351.78;;;16.21;100.00
23574;BME280;11965;53.640;10.050;2023-08-06T11:02:51;100344.97;;;16.29;100.00
23574;BME280;11965;53.640;10.050;2023-08-06T11:05:18;100341.16;;;16.59;100.00
23574;BME280;11965;53.640;10.050;2023-08-06T11:07:45;100341.13;;;16.82;100.00
23574;BME280;11965;53.640;10.050;2023-08-06T11:10:14;100343.63;;;16.95;100.00
23574;BME280;11965;53.640;10.050;2023-08-06T11:12:40;100340.13;;;16.76;100.00
23574;BME280;11965;53.640;10.050;2023-08-06T11:15:08;100334.31;;;16.66;100.00
23574;BME280;11965;53.640;10.050;2023-08-06T11:17:40;100335.28;;;16.60;100.00
23574;BME280;11965;53.640;10.050;2023-08-06T11:20:08;100333.88;;;16.46;100.00
23574;BME280;11965;53.640;10.050;2023-08-06T11:22:36;100328.75;;;16.54;100.00
23574;BME280;11965;53.640;10.050;2023-08-06T11:25:05;100332.75;;;16.59;100.00
23574;BME280;11965;53.640;10.050;2023-08-06T11:27:32;100327.59;;;16.79;100.00
23574;BME280;11965;53.640;10.050;2023-08-06T11:29:59;100332.88;;;17.04;100.00
23574;BME280;11965;53.640;10.050;2023-08-06T11:32:26;100324.53;;;17.38;100.00
23574;BME280;11965;53.640;10.050;2023-08-06T11:34:55;100327.53;;;17.48;100.00
23574;BME280;11965;53.640;10.050;2023-08-06T11:37:22;100324.28;;;17.39;100.00
23574;BME280;11965;53.640;10.050;2023-08-06T11:39:51;100326.47;;;17.20;100.00
23574;BME280;11965;53.640;10.050;2023-08-06T11:42:19;100329.16;;;17.44;100.00
23574;BME280;11965;53.640;10.050;2023-08-06T11:44:45;100330.69;;;17.52;100.00
23574;BME280;11965;53.640;10.050;2023-08-06T11:47:14;100323.41;;;17.22;100.00
23574;BME280;11965;53.640;10.050;2023-08-06T11:49:44;100330.13;;;17.38;100.00
23574;BME280;11965;53.640;10.050;2023-08-06T11:52:18;100332.38;;;17.53;100.00
23574;BME280;11965;53.640;10.050;2023-08-06T11:54:47;100324.38;;;17.78;100.00
23574;BME280;11965;53.640;10.050;2023-08-06T11:57:15;100328.63;;;17.64;100.00
23574;BME280;11965;53.640;10.050;2023-08-06T11:59:42;100326.50;;;17.54;100.00
23574;BME280;11965;53.640;10.050;2023-08-06T12:02:09;100315.91;;;17.73;100.00
23574;BME280;11965;53.640;10.050;2023-08-06T12:04:58;100316.31;;;17.65;100.00
23574;BME280;11965;53.640;10.050;2023-08-06T12:07:28;100309.41;;;17.84;100.00
23574;BME280;11965;53.640;10.050;2023-08-06T12:09:55;100305.47;;;17.85;100.00
23574;BME280;11965;53.640;10.050;2023-08-06T12:12:23;100306.19;;;18.15;100.00
23574;BME280;11965;53.640;10.050;2023-08-06T12:14:50;100304.06;;;18.22;100.00
23574;BME280;11965;53.640;10.050;2023-08-06T12:17:16;100302.50;;;18.31;100.00
23574;BME280;11965;53.640;10.050;2023-08-06T12:19:44;100298.34;;;18.33;100.00
23574;BME280;11965;53.640;10.050;2023-08-06T12:22:11;100292.94;;;18.10;100.00
23574;BME280;11965;53.640;10.050;2023-08-06T12:24:40;100289.50;;;18.03;100.00
23574;BME280;11965;53.640;10.050;2023-08-06T12:27:07;100296.97;;;18.36;100.00
23574;BME280;11965;53.640;10.050;2023-08-06T12:29:34;100291.41;;;18.63;100.00
23574;BME280;11965;53.640;10.050;2023-08-06T12:32:01;100297.78;;;18.75;100.00
23574;BME280;11965;53.640;10.050;2023-08-06T12:34:30;100290.41;;;18.96;100.00